sensor_id;sensor_type;location;lat;lon;timestamp;pressure;altitude;pressure_sealevel;temperature;humidity
18795;BME280;29610;49.022;12.114;2024-01-16T00:01:04;96826.97;;;0.87;100.00
18795;BME280;29610;49.022;12.114;2024-01-16T00:03:32;96829.47;;;1.07;100.00
18795;BME280;29610;49.022;12.114;2024-01-16T00:06:01;96846.63;;;1.01;100.00
18795;BME280;29610;49.022;12.114;2024-01-16T00:08:29;96846.13;;;0.99;100.00
18795;BME280;29610;49.022;12.114;2024-01-16T00:11:01;96845.84;;;1.00;100.00
18795;BME280;29610;49.022;12.114;2024-01-16T00:13:30;96851.00;;;1.20;100.00
18795;BME280;29610;49.022;12.114;2024-01-16T00:16:01;96859.69;;;1.07;100.00
18795;BME280;29610;49.022;12.114;2024-01-16T00:18:29;96865.44;;;1.24;100.00
18795;BME280;29610;49.022;12.114;2024-01-16T00:21:00;96865.47;;;1.19;100.00
18795;BME280;29610;49.022;12.114;2024-01-16T00:23:29;96871.47;;;1.35;100.00
18795;BME280;29610;49.022;12.114;2024-01-16T00:26:00;96876.56;;;1.36;100.00
18795;BME280;29610;49.022;12.114;2024-01-16T00:28:28;96872.56;;;1.34;100.00
18795;BME280;29610;49.022;12.114;2024-01-16T00:30:56;96877.03;;;1.43;100.00
18795;BME280;29610;49.022;12.114;2024-01-16T00:33:24;96883.22;;;1.39;100.00
18795;BME280;29610;49.022;12.114;2024-01-16T00:35:54;96889.53;;;1.24;100.00
18795;BME280;29610;49.022;12.114;2024-01-16T00:38:22;96891.81;;;1.36;100.00
18795;BME280;29610;49.022;12.114;2024-01-16T00:40:50;96887.25;;;1.36;100.00
18795;BME280;29610;49.022;12.114;2024-01-16T00:43:20;96892.53;;;1.46;100.00
18795;BME280;29610;49.022;12.114;2024-01-16T00:45:48;96900.34;;;1.38;100.00
18795;BME280;29610;49.022;12.114;2024-01-16T00:48:16;96899.47;;;1.47;100.00
18795;BME280;29610;49.022;12.114;2024-01-16T00:50:46;96906.31;;;1.30;100.00
18795;BME280;29610;49.022;12.114;2024-01-16T00:53:16;96912.00;;;1.52;100.00
18795;BME280;29610;49.022;12.114;2024-01-16T00:55:44;96912.19;;;1.32;100.00
18795;BME280;29610;49.022;12.114;2024-01-16T00:58:13;96914.34;;;1.30;100.00
18795;BME280;29610;49.022;12.114;2024-01-16T01:00:42;96918.81;;;1.39;100.00
18795;BME280;29610;49.022;12.114;2024-01-16T01:03:11;96922.19;;;1.50;100.00
18795;BME280;29610;49.022;12.114;2024-01-16T01:05:39;96916.69;;;1.36;100.00
18795;BME280;29610;49.022;12.114;2024-01-16T01:08:08;96915.47;;;1.24;100.00
18795;BME280;29610;49.022;12.114;2024-01-16T01:10:36;96910.03;;;1.34;100.00
18795;BME280;29610;49.022;12.114;2024-01-16T01:13:05;96924.22;;;1.34;100.00
18795;BME280;29610;49.022;12.114;2024-01-16T01:15:33;96919.97;;;1.28;100.00
18795;BME280;29610;49.022;12.114;2024-01-16T01:18:02;96918.19;;;1.19;100.00
18795;BME280;29610;49.022;12.114;2024-01-16T01:20:31;96920.59;;;1.20;100.00
18795;BME280;29610;49.022;12.114;2024-01-16T01:22:59;96916.50;;;1.28;100.00
18795;BME280;29610;49.022;12.114;2024-01-16T01:25:28;96929.66;;;1.24;100.00
18795;BME280;29610;49.022;12.114;2024-01-16T01:27:56;96931.47;;;1.34;100.00
18795;BME280;29610;49.022;12.114;2024-01-16T01:30:24;96936.88;;;1.24;100.00
18795;BME280;29610;49.022;12.114;2024-01-16T01:32:53;96934.06;;;1.39;100.00
18795;BME280;29610;49.022;12.114;2024-01-16T01:35:23;96934.31;;;1.42;100.00
18795;BME280;29610;49.022;12.114;2024-01-16T01:37:51;96938.97;;;1.32;100.00
18795;BME280;29610;49.022;12.114;2024-01-16T01:40:19;96945.38;;;1.31;100.00
18795;BME280;29610;49.022;12.114;2024-01-16T01:42:47;96945.56;;;1.11;100.00
18795;BME280;29610;49.022;12.114;2024-01-16T01:45:16;96951.84;;;1.25;100.00
18795;BME280;29610;49.022;12.114;2024-01-16T01:47:44;96956.44;;;1.24;100.00
18795;BME280;29610;49.022;12.114;2024-01-16T01:50:14;96945.31;;;1.07;100.00
18795;BME280;29610;49.022;12.114;2024-01-16T01:52:44;96957.25;;;1.20;100.00
18795;BME280;29610;49.022;12.114;2024-01-16T01:55:14;96958.69;;;1.07;100.00
18795;BME280;29610;49.022;12.114;2024-01-16T01:57:43;96964.03;;;1.07;100.00
18795;BME280;29610;49.022;12.114;2024-01-16T02:00:13;96967.75;;;1.11;100.00
18795;BME280;29610;49.022;12.114;2024-01-16T02:02:46;96956.69;;;1.23;100.00
18795;BME280;29610;49.022;12.114;2024-01-16T02:05:14;96964.56;;;1.09;100.00
18795;BME280;29610;49.022;12.114;2024-01-16T02:07:45;96967.84;;;0.96;100.00
18795;BME280;29610;49.022;12.114;2024-01-16T02:10:13;96971.53;;;1.05;100.00
18795;BME280;29610;49.022;12.114;2024-01-16T02:12:42;96976.66;;;1.02;100.00
18795;BME280;29610;49.022;12.114;2024-01-16T02:15:10;96982.63;;;0.89;100.00
18795;BME280;29610;49.022;12.114;2024-01-16T02:17:39;96975.00;;;1.06;100.00
18795;BME280;29610;49.022;12.114;2024-01-16T02:20:09;96979.31;;;1.07;100.00
18795;BME280;29610;49.022;12.114;2024-01-16T02:22:39;96974.72;;;1.07;100.00
18795;BME280;29610;49.022;12.114;2024-01-16T02:25:10;96975.34;;;0.94;100.00
18795;BME280;29610;49.022;12.114;2024-01-16T02:27:39;96972.31;;;1.11;100.00
18795;BME280;29610;49.022;12.114;2024-01-16T02:30:08;96964.34;;;1.01;100.00
18795;BME280;29610;49.022;12.114;2024-01-16T02:32:36;96975.56;;;1.03;100.00
18795;BME280;29610;49.022;12.114;2024-01-16T02:35:06;96972.28;;;1.16;100.00
18795;BME280;29610;49.022;12.114;2024-01-16T02:37:34;96977.38;;;1.12;100.00
18795;BME280;29610;49.022;12.114;2024-01-16T02:40:02;96981.91;;;1.12;100.00
18795;BME280;29610;49.022;12.114;2024-01-16T02:42:34;96987.34;;;1.07;100.00
18795;BME280;29610;49.022;12.114;2024-01-16T02:45:04;96988.25;;;1.26;100.00
18795;BME280;29610;49.022;12.114;2024-01-16T02:47:32;96983.31;;;1.04;100.00
18795;BME280;29610;49.022;12.114;2024-01-16T02:50:02;96987.34;;;1.02;100.00
18795;BME280;29610;49.022;12.114;2024-01-16T02:52:30;96982.28;;;1.00;100.00
18795;BME280;29610;49.022;12.114;2024-01-16T02:54:59;96995.69;;;0.95;100.00
18795;BME280;29610;49.022;12.114;2024-01-16T02:57:27;96992.16;;;1.05;100.00
18795;BME280;29610;49.022;12.114;2024-01-16T02:59:56;97000.44;;;1.08;100.00
18795;BME280;29610;49.022;12.114;2024-01-16T03:02:25;97015.13;;;1.11;100.00
18795;BME280;29610;49.022;12.114;2024-01-16T03:04:53;97015.06;;;1.21;100.00
18795;BME280;29610;49.022;12.114;2024-01-16T03:07:22;97023.16;;;1.06;100.00
18795;BME280;29610;49.022;12.114;2024-01-16T03:09:50;97020.47;;;1.11;100.00
18795;BME280;29610;49.022;12.114;2024-01-16T03:12:18;97021.50;;;1.15;100.00
18795;BME280;29610;49.022;12.114;2024-01-16T03:14:46;97022.28;;;1.20;100.00
18795;BME280;29610;49.022;12.114;2024-01-16T03:17:16;97022.41;;;1.00;100.00
18795;BME280;29610;49.022;12.114;2024-01-16T03:19:44;97025.50;;;1.17;100.00
18795;BME280;29610;49.022;12.114;2024-01-16T03:22:12;97032.88;;;0.97;100.00
18795;BME280;29610;49.022;12.114;2024-01-16T03:24:40;97030.38;;;1.10;100.00
18795;BME280;29610;49.022;12.114;2024-01-16T03:27:09;97037.31;;;1.16;100.00
18795;BME280;29610;49.022;12.114;2024-01-16T03:29:37;97034.66;;;1.11;100.00
18795;BME280;29610;49.022;12.114;2024-01-16T03:32:05;97038.91;;;1.17;100.00
18795;BME280;29610;49.022;12.114;2024-01-16T03:34:35;97039.81;;;0.93;100.00
18795;BME280;29610;49.022;12.114;2024-01-16T03:37:03;97041.66;;;0.97;100.00
18795;BME280;29610;49.022;12.114;2024-01-16T03:39:31;97042.72;;;1.01;100.00
18795;BME280;29610;49.022;12.114;2024-01-16T03:42:00;97043.81;;;1.00;100.00
18795;BME280;29610;49.022;12.114;2024-01-16T03:44:28;97042.75;;;0.96;100.00
18795;BME280;29610;49.022;12.114;2024-01-16T03:46:56;97041.25;;;0.75;100.00
18795;BME280;29610;49.022;12.114;2024-01-16T03:49:24;97042.53;;;0.88;100.00
18795;BME280;29610;49.022;12.114;2024-01-16T03:51:54;97038.50;;;0.90;100.00
18795;BME280;29610;49.022;12.114;2024-01-16T03:54:22;97034.72;;;0.96;100.00
18795;BME280;29610;49.022;12.114;2024-01-16T03:56:51;97040.66;;;0.88;100.00
18795;BME280;29610;49.022;12.114;2024-01-16T03:59:19;97039.78;;;1.03;100.00
18795;BME280;29610;49.022;12.114;2024-01-16T04:01:47;97048.63;;;0.98;100.00
18795;BME280;29610;49.022;12.114;2024-01-16T04:04:16;97043.34;;;0.83;100.00
18795;BME280;29610;49.022;12.114;2024-01-16T04:06:46;97050.50;;;0.98;100.00
18795;BME280;29610;49.022;12.114;2024-01-16T04:09:15;97057.50;;;0.94;100.00
18795;BME280;29610;49.022;12.114;2024-01-16T04:11:44;97055.91;;;0.88;100.00
18795;BME280;29610;49.022;12.114;2024-01-16T04:14:14;97061.47;;;0.96;100.00
18795;BME280;29610;49.022;12.114;2024-01-16T04:16:42;97058.78;;;1.01;100.00
18795;BME280;29610;49.022;12.114;2024-01-16T04:19:11;97058.22;;;1.04;100.00
18795;BME280;29610;49.022;12.114;2024-01-16T04:21:39;97059.56;;;1.07;100.00
18795;BME280;29610;49.022;12.114;2024-01-16T04:24:08;97057.03;;;0.77;100.00
18795;BME280;29610;49.022;12.114;2024-01-16T04:26:37;97066.13;;;0.76;100.00
18795;BME280;29610;49.022;12.114;2024-01-16T04:29:05;97068.50;;;0.87;100.00
18795;BME280;29610;49.022;12.114;2024-01-16T04:31:39;97081.63;;;0.79;100.00
18795;BME280;29610;49.022;12.114;2024-01-16T04:34:08;97070.69;;;0.70;100.00
18795;BME280;29610;49.022;12.114;2024-01-16T04:36:36;97084.28;;;0.84;100.00
18795;BME280;29610;49.022;12.114;2024-01-16T04:39:04;97068.47;;;0.92;100.00
18795;BME280;29610;49.022;12.114;2024-01-16T04:41:32;97068.50;;;0.87;100.00
18795;BME280;29610;49.022;12.114;2024-01-16T04:44:02;97060.66;;;1.01;100.00
18795;BME280;29610;49.022;12.114;2024-01-16T04:46:31;97064.72;;;0.88;100.00
18795;BME280;29610;49.022;12.114;2024-01-16T04:48:59;97064.44;;;0.95;100.00
18795;BME280;29610;49.022;12.114;2024-01-16T04:51:27;97060.78;;;0.76;100.00
18795;BME280;29610;49.022;12.114;2024-01-16T04:53:55;97065.38;;;0.65;100.00
18795;BME280;29610;49.022;12.114;2024-01-16T04:56:24;97060.50;;;0.77;100.00
18795;BME280;29610;49.022;12.114;2024-01-16T04:58:52;97070.75;;;0.50;100.00
18795;BME280;29610;49.022;12.114;2024-01-16T05:01:21;97067.00;;;0.56;100.00
18795;BME280;29610;49.022;12.114;2024-01-16T05:03:50;97071.53;;;0.61;100.00
18795;BME280;29610;49.022;12.114;2024-01-16T05:06:18;97078.97;;;0.69;100.00
18795;BME280;29610;49.022;12.114;2024-01-16T05:08:47;97076.09;;;0.60;100.00
18795;BME280;29610;49.022;12.114;2024-01-16T05:11:15;97073.97;;;0.52;100.00
18795;BME280;29610;49.022;12.114;2024-01-16T05:13:44;97081.38;;;0.70;100.00
18795;BME280;29610;49.022;12.114;2024-01-16T05:16:13;97076.56;;;0.67;100.00
18795;BME280;29610;49.022;12.114;2024-01-16T05:18:43;97085.41;;;0.68;100.00
18795;BME280;29610;49.022;12.114;2024-01-16T05:21:11;97091.31;;;0.60;100.00
18795;BME280;29610;49.022;12.114;2024-01-16T05:23:39;97093.44;;;0.63;100.00
18795;BME280;29610;49.022;12.114;2024-01-16T05:26:07;97102.56;;;0.57;100.00
18795;BME280;29610;49.022;12.114;2024-01-16T05:28:36;97097.22;;;0.57;100.00
18795;BME280;29610;49.022;12.114;2024-01-16T05:31:04;97095.91;;;0.39;100.00
18795;BME280;29610;49.022;12.114;2024-01-16T05:33:32;97102.03;;;0.50;100.00
18795;BME280;29610;49.022;12.114;2024-01-16T05:36:02;97111.41;;;0.47;100.00
18795;BME280;29610;49.022;12.114;2024-01-16T05:38:31;97110.34;;;0.43;100.00
18795;BME280;29610;49.022;12.114;2024-01-16T05:41:01;97115.41;;;0.55;100.00
18795;BME280;29610;49.022;12.114;2024-01-16T05:43:29;97112.47;;;0.51;100.00
18795;BME280;29610;49.022;12.114;2024-01-16T05:45:57;97116.75;;;0.42;100.00
18795;BME280;29610;49.022;12.114;2024-01-16T05:48:26;97107.66;;;0.43;100.00
18795;BME280;29610;49.022;12.114;2024-01-16T05:50:55;97112.22;;;0.38;100.00
18795;BME280;29610;49.022;12.114;2024-01-16T05:53:24;97112.78;;;0.35;100.00
18795;BME280;29610;49.022;12.114;2024-01-16T05:55:52;97113.53;;;0.45;100.00
18795;BME280;29610;49.022;12.114;2024-01-16T05:58:21;97110.09;;;0.40;100.00
18795;BME280;29610;49.022;12.114;2024-01-16T06:00:49;97108.22;;;0.40;100.00
18795;BME280;29610;49.022;12.114;2024-01-16T06:03:18;97114.38;;;0.41;100.00
18795;BME280;29610;49.022;12.114;2024-01-16T06:05:46;97112.78;;;0.30;100.00
18795;BME280;29610;49.022;12.114;2024-01-16T06:08:14;97120.25;;;0.28;100.00
18795;BME280;29610;49.022;12.114;2024-01-16T06:10:45;97123.47;;;0.30;100.00
18795;BME280;29610;49.022;12.114;2024-01-16T06:13:14;97126.69;;;0.27;100.00
18795;BME280;29610;49.022;12.114;2024-01-16T06:15:42;97130.72;;;0.19;100.00
18795;BME280;29610;49.022;12.114;2024-01-16T06:18:10;97129.34;;;0.17;100.00
18795;BME280;29610;49.022;12.114;2024-01-16T06:20:38;97126.94;;;0.30;100.00
18795;BME280;29610;49.022;12.114;2024-01-16T06:23:07;97119.22;;;0.19;100.00
18795;BME280;29610;49.022;12.114;2024-01-16T06:25:35;97117.03;;;0.31;100.00
18795;BME280;29610;49.022;12.114;2024-01-16T06:28:05;97122.16;;;0.12;100.00
18795;BME280;29610;49.022;12.114;2024-01-16T06:30:34;97125.66;;;-0.18;100.00
18795;BME280;29610;49.022;12.114;2024-01-16T06:33:03;97128.56;;;-0.14;100.00
18795;BME280;29610;49.022;12.114;2024-01-16T06:35:32;97130.19;;;-0.13;100.00
18795;BME280;29610;49.022;12.114;2024-01-16T06:38:01;97130.16;;;0.02;100.00
18795;BME280;29610;49.022;12.114;2024-01-16T06:40:30;97132.84;;;0.12;100.00
18795;BME280;29610;49.022;12.114;2024-01-16T06:42:58;97128.84;;;0.05;100.00
18795;BME280;29610;49.022;12.114;2024-01-16T06:45:28;97130.16;;;0.17;100.00
18795;BME280;29610;49.022;12.114;2024-01-16T06:47:56;97120.25;;;0.23;100.00
18795;BME280;29610;49.022;12.114;2024-01-16T06:50:25;97126.97;;;0.10;100.00
18795;BME280;29610;49.022;12.114;2024-01-16T06:52:53;97123.47;;;0.20;100.00
18795;BME280;29610;49.022;12.114;2024-01-16T06:55:21;97116.81;;;0.02;100.00
18795;BME280;29610;49.022;12.114;2024-01-16T06:57:49;97117.88;;;0.01;100.00
18795;BME280;29610;49.022;12.114;2024-01-16T07:00:18;97124.81;;;0.17;100.00
18795;BME280;29610;49.022;12.114;2024-01-16T07:02:48;97128.81;;;0.15;100.00
18795;BME280;29610;49.022;12.114;2024-01-16T07:05:18;97128.31;;;0.08;100.00
18795;BME280;29610;49.022;12.114;2024-01-16T07:07:47;97129.91;;;-0.07;100.00
18795;BME280;29610;49.022;12.114;2024-01-16T07:10:15;97134.44;;;-0.12;100.00
18795;BME280;29610;49.022;12.114;2024-01-16T07:12:46;97145.66;;;-0.10;100.00
18795;BME280;29610;49.022;12.114;2024-01-16T07:15:16;97140.56;;;0.03;100.00
18795;BME280;29610;49.022;12.114;2024-01-16T07:17:44;97136.84;;;-0.01;100.00
18795;BME280;29610;49.022;12.114;2024-01-16T07:20:14;97142.47;;;-0.02;100.00
18795;BME280;29610;49.022;12.114;2024-01-16T07:22:43;97140.31;;;0.10;100.00
18795;BME280;29610;49.022;12.114;2024-01-16T07:25:13;97140.59;;;0.19;100.00
18795;BME280;29610;49.022;12.114;2024-01-16T07:27:42;97138.97;;;0.23;100.00
18795;BME280;29610;49.022;12.114;2024-01-16T07:30:14;97130.94;;;0.28;100.00
18795;BME280;29610;49.022;12.114;2024-01-16T07:32:42;97126.69;;;0.07;100.00
18795;BME280;29610;49.022;12.114;2024-01-16T07:35:09;97123.78;;;-0.02;100.00
18795;BME280;29610;49.022;12.114;2024-01-16T07:37:39;97131.75;;;0.18;100.00
18795;BME280;29610;49.022;12.114;2024-01-16T07:40:08;97136.59;;;0.11;100.00
18795;BME280;29610;49.022;12.114;2024-01-16T07:42:36;97132.03;;;0.07;100.00
18795;BME280;29610;49.022;12.114;2024-01-16T07:45:06;97126.94;;;0.05;100.00
18795;BME280;29610;49.022;12.114;2024-01-16T07:47:34;97130.44;;;0.11;100.00
18795;BME280;29610;49.022;12.114;2024-01-16T07:50:04;97126.44;;;0.03;100.00
18795;BME280;29610;49.022;12.114;2024-01-16T07:52:35;97124.00;;;0.12;100.00
18795;BME280;29610;49.022;12.114;2024-01-16T07:55:05;97131.22;;;0.16;100.00
18795;BME280;29610;49.022;12.114;2024-01-16T07:57:33;97132.56;;;0.14;100.00
18795;BME280;29610;49.022;12.114;2024-01-16T08:00:02;97138.97;;;0.18;100.00
18795;BME280;29610;49.022;12.114;2024-01-16T08:02:32;97144.56;;;0.36;100.00
18795;BME280;29610;49.022;12.114;2024-01-16T08:05:01;97138.97;;;0.43;100.00
18795;BME280;29610;49.022;12.114;2024-01-16T08:07:30;97140.25;;;0.60;100.00
18795;BME280;29610;49.022;12.114;2024-01-16T08:09:58;97132.22;;;0.65;100.00
18795;BME280;29610;49.022;12.114;2024-01-16T08:12:28;97136.41;;;0.86;100.00
18795;BME280;29610;49.022;12.114;2024-01-16T08:14:56;97139.06;;;0.96;100.00
18795;BME280;29610;49.022;12.114;2024-01-16T08:17:24;97130.31;;;0.81;100.00
18795;BME280;29610;49.022;12.114;2024-01-16T08:19:53;97138.31;;;0.81;100.00
18795;BME280;29610;49.022;12.114;2024-01-16T08:22:21;97130.56;;;0.79;100.00
18795;BME280;29610;49.022;12.114;2024-01-16T08:24:49;97143.38;;;0.87;100.00
18795;BME280;29610;49.022;12.114;2024-01-16T08:27:19;97147.06;;;1.06;100.00
18795;BME280;29610;49.022;12.114;2024-01-16T08:29:48;97151.34;;;1.02;100.00
18795;BME280;29610;49.022;12.114;2024-01-16T08:32:17;97158.53;;;1.12;100.00
18795;BME280;29610;49.022;12.114;2024-01-16T08:34:45;97156.94;;;1.16;100.00
18795;BME280;29610;49.022;12.114;2024-01-16T08:37:14;97150.22;;;1.13;100.00
18795;BME280;29610;49.022;12.114;2024-01-16T08:39:42;97146.97;;;1.26;100.00
18795;BME280;29610;49.022;12.114;2024-01-16T08:42:11;97145.34;;;1.35;100.00
18795;BME280;29610;49.022;12.114;2024-01-16T08:44:39;97139.88;;;1.50;100.00
18795;BME280;29610;49.022;12.114;2024-01-16T08:47:09;97146.78;;;1.57;100.00
18795;BME280;29610;49.022;12.114;2024-01-16T08:49:37;97139.44;;;1.77;100.00
18795;BME280;29610;49.022;12.114;2024-01-16T08:52:07;97140.84;;;1.65;100.00
18795;BME280;29610;49.022;12.114;2024-01-16T08:54:35;97141.63;;;1.75;100.00
18795;BME280;29610;49.022;12.114;2024-01-16T08:57:04;97140.19;;;1.88;100.00
18795;BME280;29610;49.022;12.114;2024-01-16T08:59:32;97135.81;;;1.58;100.00
18795;BME280;29610;49.022;12.114;2024-01-16T09:02:00;97138.22;;;1.98;100.00
18795;BME280;29610;49.022;12.114;2024-01-16T09:04:31;97140.50;;;2.15;100.00
18795;BME280;29610;49.022;12.114;2024-01-16T09:07:01;97132.19;;;2.45;100.00
18795;BME280;29610;49.022;12.114;2024-01-16T09:09:31;97130.03;;;2.47;100.00
18795;BME280;29610;49.022;12.114;2024-01-16T09:12:07;97117.59;;;2.27;100.00
18795;BME280;29610;49.022;12.114;2024-01-16T09:14:35;97115.81;;;2.18;100.00
18795;BME280;29610;49.022;12.114;2024-01-16T09:17:04;97111.88;;;2.39;100.00
18795;BME280;29610;49.022;12.114;2024-01-16T09:19:33;97123.91;;;2.41;100.00
18795;BME280;29610;49.022;12.114;2024-01-16T09:22:02;97123.31;;;2.73;100.00
18795;BME280;29610;49.022;12.114;2024-01-16T09:24:31;97121.03;;;2.85;100.00
18795;BME280;29610;49.022;12.114;2024-01-16T09:26:59;97119.94;;;3.10;100.00
18795;BME280;29610;49.022;12.114;2024-01-16T09:29:27;97114.47;;;3.38;100.00
18795;BME280;29610;49.022;12.114;2024-01-16T09:31:56;97117.38;;;3.42;100.00
18795;BME280;29610;49.022;12.114;2024-01-16T09:34:24;97116.78;;;3.45;100.00
18795;BME280;29610;49.022;12.114;2024-01-16T09:36:54;97126.34;;;3.14;100.00
18795;BME280;29610;49.022;12.114;2024-01-16T09:39:26;97128.22;;;3.55;100.00
18795;BME280;29610;49.022;12.114;2024-01-16T09:41:55;97113.97;;;3.73;100.00
18795;BME280;29610;49.022;12.114;2024-01-16T09:44:28;97113.31;;;3.81;100.00
18795;BME280;29610;49.022;12.114;2024-01-16T09:46:59;97125.97;;;3.81;100.00
18795;BME280;29610;49.022;12.114;2024-01-16T09:49:30;97116.97;;;4.04;100.00
18795;BME280;29610;49.022;12.114;2024-01-16T09:52:00;97113.38;;;3.58;100.00
18795;BME280;29610;49.022;12.114;2024-01-16T09:54:28;97115.72;;;4.15;100.00
18795;BME280;29610;49.022;12.114;2024-01-16T09:56:59;97114.50;;;4.26;100.00
18795;BME280;29610;49.022;12.114;2024-01-16T09:59:32;97115.56;;;4.25;100.00
18795;BME280;29610;49.022;12.114;2024-01-16T10:02:02;97118.91;;;4.49;100.00
18795;BME280;29610;49.022;12.114;2024-01-16T10:04:34;97115.94;;;4.50;100.00
18795;BME280;29610;49.022;12.114;2024-01-16T10:07:04;97109.88;;;4.59;100.00
18795;BME280;29610;49.022;12.114;2024-01-16T10:09:33;97115.63;;;4.38;100.00
18795;BME280;29610;49.022;12.114;2024-01-16T10:12:01;97112.13;;;4.51;100.00
18795;BME280;29610;49.022;12.114;2024-01-16T10:14:31;97113.03;;;4.47;100.00
18795;BME280;29610;49.022;12.114;2024-01-16T10:17:01;97106.97;;;4.09;100.00
18795;BME280;29610;49.022;12.114;2024-01-16T10:19:32;97110.31;;;4.33;100.00
18795;BME280;29610;49.022;12.114;2024-01-16T10:22:22;97108.28;;;4.58;100.00
18795;BME280;29610;49.022;12.114;2024-01-16T10:25:05;97110.25;;;4.52;100.00
18795;BME280;29610;49.022;12.114;2024-01-16T10:27:35;97106.38;;;4.58;100.00
18795;BME280;29610;49.022;12.114;2024-01-16T10:30:05;97114.25;;;4.55;100.00
18795;BME280;29610;49.022;12.114;2024-01-16T10:32:36;97118.59;;;4.37;100.00
18795;BME280;29610;49.022;12.114;2024-01-16T10:35:07;97119.97;;;4.34;100.00
18795;BME280;29610;49.022;12.114;2024-01-16T10:37:44;97131.31;;;4.31;100.00
18795;BME280;29610;49.022;12.114;2024-01-16T10:40:16;97130.72;;;4.21;100.00
18795;BME280;29610;49.022;12.114;2024-01-16T10:42:57;97137.38;;;4.23;100.00
18795;BME280;29610;49.022;12.114;2024-01-16T10:45:26;97135.72;;;4.27;100.00
18795;BME280;29610;49.022;12.114;2024-01-16T10:48:01;97140.22;;;4.45;100.00
18795;BME280;29610;49.022;12.114;2024-01-16T10:50:32;97140.00;;;4.42;100.00
18795;BME280;29610;49.022;12.114;2024-01-16T10:53:04;97141.72;;;4.51;100.00
18795;BME280;29610;49.022;12.114;2024-01-16T10:55:43;97140.28;;;4.59;100.00
18795;BME280;29610;49.022;12.114;2024-01-16T10:58:22;97141.25;;;4.63;100.00
18795;BME280;29610;49.022;12.114;2024-01-16T11:00:52;97136.03;;;4.39;100.00
18795;BME280;29610;49.022;12.114;2024-01-16T11:03:29;97138.41;;;4.73;100.00
18795;BME280;29610;49.022;12.114;2024-01-16T11:06:06;97131.13;;;5.14;100.00
18795;BME280;29610;49.022;12.114;2024-01-16T11:08:39;97140.00;;;5.42;100.00
18795;BME280;29610;49.022;12.114;2024-01-16T11:11:08;97131.47;;;5.62;100.00
18795;BME280;29610;49.022;12.114;2024-01-16T11:13:38;97129.09;;;5.60;100.00
18795;BME280;29610;49.022;12.114;2024-01-16T11:16:10;97124.50;;;5.47;100.00
18795;BME280;29610;49.022;12.114;2024-01-16T11:18:39;97120.75;;;5.48;100.00
18795;BME280;29610;49.022;12.114;2024-01-16T11:21:11;97118.91;;;5.57;100.00
18795;BME280;29610;49.022;12.114;2024-01-16T11:23:46;97122.72;;;5.43;100.00
18795;BME280;29610;49.022;12.114;2024-01-16T11:26:26;97120.94;;;5.38;100.00
18795;BME280;29610;49.022;12.114;2024-01-16T11:28:55;97114.34;;;5.44;100.00
18795;BME280;29610;49.022;12.114;2024-01-16T11:31:31;97126.84;;;5.27;100.00
18795;BME280;29610;49.022;12.114;2024-01-16T11:34:01;97120.38;;;5.28;100.00
18795;BME280;29610;49.022;12.114;2024-01-16T11:36:49;97116.06;;;5.40;100.00
18795;BME280;29610;49.022;12.114;2024-01-16T11:39:22;97119.66;;;5.22;100.00
18795;BME280;29610;49.022;12.114;2024-01-16T11:41:54;97105.81;;;4.61;100.00
18795;BME280;29610;49.022;12.114;2024-01-16T11:44:43;97103.03;;;5.07;100.00
18795;BME280;29610;49.022;12.114;2024-01-16T11:47:18;97105.31;;;5.13;100.00
18795;BME280;29610;49.022;12.114;2024-01-16T11:49:50;97106.66;;;5.38;100.00
18795;BME280;29610;49.022;12.114;2024-01-16T11:52:40;97093.41;;;5.41;100.00
18795;BME280;29610;49.022;12.114;2024-01-16T11:55:28;97087.63;;;5.70;100.00
18795;BME280;29610;49.022;12.114;2024-01-16T11:58:24;97080.69;;;5.91;100.00
18795;BME280;29610;49.022;12.114;2024-01-16T12:00:55;97072.72;;;5.86;100.00
18795;BME280;29610;49.022;12.114;2024-01-16T12:03:24;97070.09;;;5.94;100.00
18795;BME280;29610;49.022;12.114;2024-01-16T12:06:02;97065.31;;;6.14;100.00
18795;BME280;29610;49.022;12.114;2024-01-16T12:08:34;97065.84;;;6.24;97.78
18795;BME280;29610;49.022;12.114;2024-01-16T12:11:07;97064.53;;;6.44;96.21
18795;BME280;29610;49.022;12.114;2024-01-16T12:13:35;97055.69;;;5.99;94.04
18795;BME280;29610;49.022;12.114;2024-01-16T12:16:04;97059.19;;;6.00;96.92
18795;BME280;29610;49.022;12.114;2024-01-16T12:18:32;97062.31;;;6.15;100.00
18795;BME280;29610;49.022;12.114;2024-01-16T12:21:11;97064.31;;;6.10;99.08
18795;BME280;29610;49.022;12.114;2024-01-16T12:23:41;97056.19;;;6.23;97.63
18795;BME280;29610;49.022;12.114;2024-01-16T12:26:23;97054.97;;;5.85;97.04
18795;BME280;29610;49.022;12.114;2024-01-16T12:28:52;97044.25;;;5.58;94.58
18795;BME280;29610;49.022;12.114;2024-01-16T12:31:27;97037.13;;;5.40;93.60
18795;BME280;29610;49.022;12.114;2024-01-16T12:34:05;97044.00;;;4.70;99.86
18795;BME280;29610;49.022;12.114;2024-01-16T12:36:37;97040.00;;;4.94;100.00
18795;BME280;29610;49.022;12.114;2024-01-16T12:39:05;97033.91;;;4.89;100.00
18795;BME280;29610;49.022;12.114;2024-01-16T12:41:43;97039.97;;;5.08;100.00
18795;BME280;29610;49.022;12.114;2024-01-16T12:44:13;97032.75;;;5.30;100.00
18795;BME280;29610;49.022;12.114;2024-01-16T12:46:44;97023.66;;;5.62;100.00
18795;BME280;29610;49.022;12.114;2024-01-16T12:49:22;97008.41;;;5.22;96.73
18795;BME280;29610;49.022;12.114;2024-01-16T12:51:51;97008.97;;;4.97;100.00
18795;BME280;29610;49.022;12.114;2024-01-16T12:54:20;97012.81;;;4.69;100.00
18795;BME280;29610;49.022;12.114;2024-01-16T12:56:59;96999.53;;;4.86;100.00
18795;BME280;29610;49.022;12.114;2024-01-16T12:59:28;96996.63;;;4.82;100.00
18795;BME280;29610;49.022;12.114;2024-01-16T13:01:58;96996.03;;;4.85;100.00
18795;BME280;29610;49.022;12.114;2024-01-16T13:04:27;96995.31;;;5.07;100.00